Time;durP1;ratioP1;P1;durP2;ratioP2;P2;SDS_P1;SDS_P2;PMS_P1;PMS_P2;Temp;Humidity;BMP_temperature;BMP_pressure;BME280_temperature;BME280_humidity;BME280_pressure;Samples;Min_cycle;Max_cycle;Signal;HPM_P1;HPM_P2
2022/01/10 00:00:25;;;;;;;1.90;0.45;;;6.00;99.90;;;;;;5136591;27;20031;-75
2022/01/10 00:02:55;;;;;;;0.85;0.43;;;6.00;4.90;;;;;;5135586;27;20023;-75
2022/01/10 00:05:21;;;;;;;0.60;0.57;;;6.00;99.90;;;;;;5136794;27;20038;-75
2022/01/10 00:07:47;;;;;;;0.50;0.40;;;6.00;1.00;;;;;;5136419;27;20087;-75
2022/01/10 00:10:14;;;;;;;0.60;0.50;;;5.90;99.90;;;;;;5136826;27;20500;-76
2022/01/10 00:12:40;;;;;;;1.13;0.95;;;5.90;99.90;;;;;;5136543;27;20042;-75
2022/01/10 00:15:07;;;;;;;0.45;0.40;;;5.90;99.90;;;;;;5136259;27;20039;-75
2022/01/10 00:17:36;;;;;;;0.40;0.40;;;5.90;99.90;;;;;;5136241;27;20546;-75
2022/01/10 00:20:03;;;;;;;0.63;0.43;;;5.90;99.90;;;;;;5136045;27;20047;-74
2022/01/10 00:22:29;;;;;;;0.50;0.30;;;5.90;99.90;;;;;;5136421;27;20042;-74
2022/01/10 00:24:55;;;;;;;2.25;0.50;;;5.80;99.90;;;;;;5136893;27;20031;-75
2022/01/10 00:27:21;;;;;;;0.50;0.40;;;5.90;99.90;;;;;;5136090;27;20527;-75
2022/01/10 00:29:47;;;;;;;0.38;0.30;;;5.80;99.90;;;;;;5136574;27;20067;-75
2022/01/10 00:32:12;;;;;;;0.82;0.60;;;5.80;99.90;;;;;;5136288;27;20035;-74
2022/01/10 00:34:38;;;;;;;1.17;0.70;;;5.80;99.90;;;;;;5136101;27;20117;-75
2022/01/10 00:37:04;;;;;;;0.28;0.28;;;5.80;99.90;;;;;;5136123;27;20061;-75
2022/01/10 00:39:30;;;;;;;0.20;0.20;;;5.90;57.30;;;;;;5136588;27;20035;-75
2022/01/10 00:41:56;;;;;;;0.55;0.50;;;5.90;1.00;;;;;;5136089;27;20062;-75
2022/01/10 00:44:25;;;;;;;2.53;0.70;;;5.80;99.90;;;;;;5135819;27;20039;-76
2022/01/10 00:46:52;;;;;;;0.32;0.32;;;5.80;99.90;;;;;;5135939;27;20027;-75
2022/01/10 00:49:18;;;;;;;0.40;0.40;;;5.80;99.90;;;;;;5135866;27;20046;-75
2022/01/10 00:51:44;;;;;;;2.17;0.40;;;5.80;99.90;;;;;;5135709;27;20031;-76
2022/01/10 00:54:10;;;;;;;0.75;0.45;;;5.80;99.90;;;;;;5135933;27;20039;-75
2022/01/10 00:56:35;;;;;;;0.30;0.30;;;5.70;62.40;;;;;;5135979;27;20033;-74
2022/01/10 00:59:01;;;;;;;0.32;0.20;;;5.70;99.90;;;;;;5136203;27;20039;-75
2022/01/10 01:01:27;;;;;;;0.50;0.40;;;5.80;1.00;;;;;;5135632;27;20076;-74
2022/01/10 01:03:53;;;;;;;0.30;0.20;;;5.70;1.00;;;;;;5135717;27;20039;-74
2022/01/10 01:06:19;;;;;;;0.35;0.30;;;5.80;99.90;;;;;;5135692;27;20039;-74
2022/01/10 01:08:45;;;;;;;0.52;0.40;;;5.80;94.50;;;;;;5135839;27;20117;-75
2022/01/10 01:13:55;;;;;;;0.65;0.43;;;5.80;42.10;;;;;;5135280;27;20038;-75
2022/01/10 01:19:53;;;;;;;1.15;0.55;;;5.80;1.00;;;;;;5135816;27;20062;-75
2022/01/10 01:24:35;;;;;;;0.75;0.40;;;5.90;1.00;;;;;;5135596;28;20096;-75
2022/01/10 01:27:01;;;;;;;0.40;0.40;;;5.90;1.00;;;;;;5135572;28;20064;-75
2022/01/10 01:29:29;;;;;;;0.50;0.30;;;5.90;1.00;;;;;;5135997;28;20023;-75
2022/01/10 01:31:56;;;;;;;1.95;0.10;;;5.90;99.90;;;;;;5135766;28;20031;-74
2022/01/10 01:34:23;;;;;;;0.55;0.40;;;5.90;99.90;;;;;;5135501;27;20114;-74
2022/01/10 01:36:52;;;;;;;0.52;0.45;;;5.90;99.90;;;;;;5135266;28;20039;-75
2022/01/10 01:39:22;;;;;;;0.80;0.50;;;5.90;99.90;;;;;;5135911;28;20035;-75
2022/01/10 01:42:01;;;;;;;0.50;0.32;;;5.90;99.90;;;;;;5135624;28;20034;-75
2022/01/10 01:44:26;;;;;;;1.65;0.30;;;5.90;99.90;;;;;;5136532;28;20023;-74
2022/01/10 01:46:52;;;;;;;0.50;0.47;;;5.90;1.00;;;;;;5135655;27;20496;-74
2022/01/10 01:49:18;;;;;;;0.25;0.22;;;5.90;1.00;;;;;;5135325;28;20469;-74
2022/01/10 01:51:44;;;;;;;1.65;0.70;;;6.00;99.90;;;;;;5135312;28;20031;-74
2022/01/10 01:54:10;;;;;;;0.60;0.60;;;6.00;99.90;;;;;;5135527;28;20031;-75
2022/01/10 01:56:38;;;;;;;0.60;0.52;;;5.90;99.90;;;;;;5135480;27;20068;-75
2022/01/10 01:59:04;;;;;;;0.57;0.30;;;5.90;1.00;;;;;;5135200;28;20066;-75
2022/01/10 02:01:31;;;;;;;0.30;0.20;;;5.90;1.00;;;;;;5135725;28;20066;-75
2022/01/10 02:03:57;;;;;;;0.85;0.32;;;5.90;1.00;;;;;;5135366;27;20076;-74
2022/01/10 02:06:23;;;;;;;1.70;0.73;;;5.80;1.00;;;;;;5135773;28;20034;-75
2022/01/10 02:08:48;;;;;;;0.93;0.50;;;5.80;1.00;;;;;;5135752;28;20042;-75
2022/01/10 02:11:15;;;;;;;1.67;0.35;;;5.80;1.00;;;;;;5134944;27;20104;-75
2022/01/10 02:13:43;;;;;;;0.35;0.35;;;5.80;1.00;;;;;;5135072;28;20079;-74
2022/01/10 02:16:11;;;;;;;0.65;0.45;;;5.90;1.00;;;;;;5135188;28;20145;-75
2022/01/10 02:18:37;;;;;;;1.27;0.68;;;5.70;1.00;;;;;;5134283;28;20547;-74
2022/01/10 02:21:05;;;;;;;0.77;0.55;;;5.80;1.00;;;;;;5135007;28;20042;-75
2022/01/10 02:23:32;;;;;;;1.42;0.40;;;5.80;1.00;;;;;;5134891;28;20031;-75
2022/01/10 02:25:59;;;;;;;0.40;0.35;;;5.80;1.00;;;;;;5135742;27;20031;-74
2022/01/10 02:28:26;;;;;;;0.75;0.55;;;5.80;1.00;;;;;;5138408;27;20031;-75
2022/01/10 02:30:56;;;;;;;1.58;0.40;;;5.90;99.90;;;;;;5138972;27;20063;-74
2022/01/10 02:33:28;;;;;;;0.82;0.38;;;5.90;88.10;;;;;;5139089;27;20031;-74
2022/01/10 02:38:29;;;;;;;0.85;0.77;;;5.90;99.90;;;;;;5138278;27;20134;-74
2022/01/10 02:40:57;;;;;;;1.23;0.45;;;5.90;99.90;;;;;;5138256;27;20143;-74
2022/01/10 02:43:22;;;;;;;1.52;0.50;;;5.90;1.00;;;;;;5138382;27;20035;-74
2022/01/10 02:45:48;;;;;;;3.45;0.80;;;5.90;1.00;;;;;;5138108;27;20046;-75
2022/01/10 02:48:14;;;;;;;2.95;0.65;;;5.80;1.00;;;;;;5138164;27;20034;-74
2022/01/10 02:50:40;;;;;;;3.47;1.00;;;5.80;1.00;;;;;;5138890;27;20070;-75
2022/01/10 02:53:06;;;;;;;1.52;1.00;;;5.80;1.00;;;;;;5138540;27;20084;-75
2022/01/10 02:55:32;;;;;;;1.67;0.77;;;5.80;1.00;;;;;;5137940;27;20110;-74
2022/01/10 02:57:58;;;;;;;1.48;0.60;;;5.90;1.00;;;;;;5137729;27;20034;-74
2022/01/10 03:00:26;;;;;;;1.25;0.40;;;5.90;1.00;;;;;;5137590;27;20019;-74
2022/01/10 03:02:54;;;;;;;0.47;0.40;;;6.00;1.00;;;;;;5137638;27;20027;-75
2022/01/10 03:05:22;;;;;;;2.05;0.40;;;5.90;1.00;;;;;;5138034;27;20056;-75
2022/01/10 03:07:49;;;;;;;0.93;0.50;;;6.00;1.00;;;;;;5137680;27;20478;-74
2022/01/10 03:10:15;;;;;;;0.98;0.70;;;5.90;1.00;;;;;;5137867;27;20027;-75
2022/01/10 03:12:41;;;;;;;0.95;0.63;;;5.90;1.00;;;;;;5138176;27;20114;-74
2022/01/10 03:15:09;;;;;;;0.90;0.73;;;5.80;1.00;;;;;;5138096;27;20114;-75
2022/01/10 03:17:36;;;;;;;0.90;0.70;;;5.80;1.00;;;;;;5138051;27;20088;-74
2022/01/10 03:20:04;;;;;;;3.35;2.72;;;5.80;1.00;;;;;;5138509;27;20074;-74
2022/01/10 03:22:31;;;;;;;6.13;5.53;;;5.90;1.00;;;;;;5138030;27;20035;-74
2022/01/10 03:24:58;;;;;;;5.25;2.08;;;5.90;1.00;;;;;;5137915;27;20062;-75
2022/01/10 03:27:24;;;;;;;3.10;1.80;;;5.90;1.00;;;;;;5137889;27;20035;-75
2022/01/10 03:29:51;;;;;;;1.50;1.20;;;5.90;1.00;;;;;;5137891;27;20122;-75
2022/01/10 03:32:17;;;;;;;2.05;1.60;;;5.90;1.00;;;;;;5137589;27;20091;-74
2022/01/10 03:34:43;;;;;;;2.08;1.35;;;5.90;1.00;;;;;;5137601;27;20031;-75
2022/01/10 03:37:10;;;;;;;1.38;1.20;;;5.90;1.00;;;;;;5137121;27;20049;-75
2022/01/10 03:39:36;;;;;;;2.90;1.35;;;5.90;1.00;;;;;;5137485;27;20469;-75
2022/01/10 03:42:02;;;;;;;1.02;1.00;;;6.00;1.00;;;;;;5137494;27;20031;-75
2022/01/10 03:44:28;;;;;;;2.90;1.08;;;6.00;1.00;;;;;;5137582;27;20034;-74
2022/01/10 03:46:56;;;;;;;3.00;0.90;;;5.90;1.00;;;;;;5137191;27;20366;-74
2022/01/10 03:49:25;;;;;;;2.45;1.27;;;5.90;1.00;;;;;;5137579;27;20031;-74
2022/01/10 03:51:51;;;;;;;1.38;1.20;;;5.90;1.00;;;;;;5137256;27;20030;-75
2022/01/10 03:54:17;;;;;;;1.00;0.90;;;5.90;1.00;;;;;;5137051;27;20035;-74
2022/01/10 03:56:43;;;;;;;0.95;0.90;;;6.00;1.00;;;;;;5136904;27;20492;-74
2022/01/10 03:59:09;;;;;;;2.05;0.70;;;5.90;1.00;;;;;;5137378;27;20051;-75
2022/01/10 04:01:38;;;;;;;0.98;0.50;;;5.90;1.00;;;;;;5136918;27;20033;-74
2022/01/10 04:04:05;;;;;;;1.30;0.80;;;5.90;1.00;;;;;;5136938;27;20035;-75
2022/01/10 04:06:31;;;;;;;0.52;0.40;;;5.90;1.00;;;;;;5137095;27;20054;-75
2022/01/10 04:08:57;;;;;;;0.30;0.30;;;6.00;1.00;;;;;;5137074;27;20355;-74
2022/01/10 04:11:23;;;;;;;1.30;0.60;;;6.00;1.00;;;;;;5136461;27;20046;-75
2022/01/10 04:13:49;;;;;;;0.88;0.70;;;6.10;1.00;;;;;;5136367;27;20031;-74
2022/01/10 04:16:15;;;;;;;0.25;0.10;;;6.00;1.00;;;;;;5136543;27;20034;-75
2022/01/10 04:18:41;;;;;;;1.88;0.52;;;6.00;99.90;;;;;;5136246;27;20115;-74
2022/01/10 04:21:06;;;;;;;0.40;0.35;;;6.00;1.00;;;;;;5136195;27;20039;-74
2022/01/10 04:23:32;;;;;;;0.35;0.25;;;6.10;99.90;;;;;;5136465;27;20118;-75
2022/01/10 04:25:58;;;;;;;0.20;0.20;;;6.00;99.90;;;;;;5136264;27;20477;-75
2022/01/10 04:28:25;;;;;;;1.10;0.60;;;6.10;99.90;;;;;;5136390;27;20039;-75
2022/01/10 04:30:50;;;;;;;0.70;0.43;;;6.00;99.90;;;;;;5136608;27;20023;-74
2022/01/10 04:33:18;;;;;;;1.80;1.60;;;6.00;99.90;;;;;;5135573;27;20034;-75
2022/01/10 04:35:46;;;;;;;2.05;1.25;;;6.10;99.90;;;;;;5136504;27;20039;-74
2022/01/10 04:38:12;;;;;;;3.08;0.30;;;6.00;99.90;;;;;;5135924;27;20030;-75
2022/01/10 04:40:38;;;;;;;0.30;0.30;;;6.00;1.00;;;;;;5136535;27;20084;-75
2022/01/10 04:43:04;;;;;;;2.60;0.20;;;6.00;99.90;;;;;;5135875;27;20438;-76
2022/01/10 04:45:29;;;;;;;0.80;0.10;;;5.90;99.90;;;;;;5135795;27;20077;-75
2022/01/10 04:47:55;;;;;;;0.17;0.17;;;6.00;99.90;;;;;;5135587;27;20423;-75
2022/01/10 04:52:48;;;;;;;1.85;0.28;;;5.90;99.90;;;;;;5135976;27;20058;-75
2022/01/10 04:55:14;;;;;;;2.22;0.47;;;5.90;99.90;;;;;;5135993;27;20054;-75
2022/01/10 04:57:40;;;;;;;2.05;0.65;;;5.90;99.90;;;;;;5135540;27;20066;-75
2022/01/10 05:00:10;;;;;;;0.65;0.60;;;6.00;99.90;;;;;;5136194;27;20125;-75
2022/01/10 05:02:36;;;;;;;1.90;0.20;;;6.00;99.90;;;;;;5117879;27;20039;-75
2022/01/10 05:05:03;;;;;;;0.20;0.20;;;6.00;99.90;;;;;;5132165;27;20035;-75
2022/01/10 05:07:29;;;;;;;1.30;0.30;;;6.00;99.90;;;;;;5122223;27;20031;-76
2022/01/10 05:09:57;;;;;;;0.22;0.20;;;5.90;99.90;;;;;;5115497;28;20583;-75
2022/01/10 05:12:24;;;;;;;0.32;0.20;;;5.90;99.90;;;;;;5116170;28;20051;-74
2022/01/10 05:14:50;;;;;;;1.48;0.10;;;6.00;99.90;;;;;;5128246;27;20031;-75
2022/01/10 05:17:19;;;;;;;0.20;0.10;;;5.80;99.90;;;;;;5117027;27;20036;-75
2022/01/10 05:19:45;;;;;;;0.22;0.15;;;5.80;99.90;;;;;;5114976;28;20371;-75
2022/01/10 05:22:11;;;;;;;0.20;0.10;;;5.90;99.90;;;;;;5115231;28;20036;-76
2022/01/10 05:24:37;;;;;;;0.50;0.10;;;5.90;99.90;;;;;;5131025;28;20035;-75
2022/01/10 05:27:04;;;;;;;0.15;0.15;;;5.90;99.90;;;;;;5135448;28;20092;-75
2022/01/10 05:29:30;;;;;;;0.82;0.52;;;5.90;99.90;;;;;;5135716;28;20039;-75
2022/01/10 05:31:56;;;;;;;0.40;0.22;;;6.00;99.90;;;;;;5128527;28;20043;-75
2022/01/10 05:34:22;;;;;;;2.05;0.40;;;5.90;99.90;;;;;;5114808;28;20059;-74
2022/01/10 05:36:48;;;;;;;0.52;0.30;;;5.90;99.90;;;;;;5115512;27;20032;-74
2022/01/10 05:39:15;;;;;;;0.85;0.50;;;6.00;99.90;;;;;;5114188;28;20032;-75
2022/01/10 05:41:41;;;;;;;0.52;0.32;;;6.00;99.90;;;;;;5114269;28;20084;-75
2022/01/10 05:44:07;;;;;;;1.67;0.60;;;6.00;99.90;;;;;;5115429;28;20035;-75
2022/01/10 05:46:34;;;;;;;2.83;0.68;;;6.00;99.90;;;;;;5114510;28;20043;-76
2022/01/10 05:49:01;;;;;;;0.28;0.20;;;6.00;99.90;;;;;;5114506;28;20119;-75
2022/01/10 05:51:29;;;;;;;1.90;0.80;;;5.90;99.90;;;;;;5114272;28;20027;-75
2022/01/10 05:53:56;;;;;;;1.60;0.60;;;6.00;99.90;;;;;;5115038;28;20027;-75
2022/01/10 05:56:21;;;;;;;3.75;0.25;;;6.00;99.90;;;;;;5115028;28;20476;-75
2022/01/10 05:58:47;;;;;;;0.60;0.40;;;6.00;99.90;;;;;;5115119;28;20104;-76
2022/01/10 06:01:13;;;;;;;0.10;0.10;;;6.00;99.90;;;;;;5115922;28;20036;-75
2022/01/10 06:03:39;;;;;;;1.45;0.88;;;6.00;99.90;;;;;;5118980;28;20369;-75
2022/01/10 06:06:05;;;;;;;4.22;1.15;;;6.00;99.90;;;;;;5118673;28;20088;-75
2022/01/10 06:08:30;;;;;;;2.10;1.17;;;6.00;99.90;;;;;;5100457;28;20023;-75
2022/01/10 06:10:56;;;;;;;0.90;0.52;;;6.00;99.90;;;;;;5118680;28;20047;-75
2022/01/10 06:13:22;;;;;;;1.17;0.52;;;6.00;99.90;;;;;;5118809;28;20035;-75
2022/01/10 06:15:48;;;;;;;1.08;0.30;;;6.00;99.90;;;;;;5118409;28;20043;-75
2022/01/10 06:18:13;;;;;;;1.65;0.50;;;6.10;99.90;;;;;;5118440;28;20389;-75
2022/01/10 06:20:39;;;;;;;0.80;0.52;;;6.10;99.90;;;;;;5118916;28;20043;-75
2022/01/10 06:23:05;;;;;;;2.58;1.27;;;6.00;99.90;;;;;;5119152;28;20433;-75
2022/01/10 06:25:31;;;;;;;2.30;1.30;;;6.10;99.90;;;;;;5118471;28;20513;-76
2022/01/10 06:27:57;;;;;;;0.57;0.40;;;6.10;99.90;;;;;;5118484;28;20040;-75
2022/01/10 06:30:24;;;;;;;0.30;0.30;;;6.00;99.90;;;;;;5119079;28;20058;-75
2022/01/10 06:32:50;;;;;;;1.80;0.68;;;6.10;99.90;;;;;;5118144;28;20039;-75
2022/01/10 06:35:16;;;;;;;2.50;1.15;;;6.10;99.90;;;;;;5118117;28;20114;-75
2022/01/10 06:37:42;;;;;;;0.70;0.40;;;6.00;99.90;;;;;;5117970;28;20067;-75
2022/01/10 06:40:09;;;;;;;2.70;1.05;;;5.90;99.90;;;;;;5118482;28;20043;-75
2022/01/10 06:42:35;;;;;;;1.00;0.50;;;5.90;99.90;;;;;;5118257;28;20057;-75
2022/01/10 06:45:00;;;;;;;1.08;0.60;;;6.00;99.90;;;;;;5118387;28;20400;-75
2022/01/10 06:47:26;;;;;;;1.77;0.90;;;6.00;99.90;;;;;;5118134;28;20036;-75
2022/01/10 06:49:52;;;;;;;1.65;1.17;;;5.90;99.90;;;;;;5117970;28;20039;-75
2022/01/10 06:52:18;;;;;;;1.77;0.95;;;5.90;99.90;;;;;;5118094;28;20470;-75
2022/01/10 06:54:44;;;;;;;1.73;1.20;;;6.00;99.90;;;;;;5117992;28;20035;-75
2022/01/10 06:57:10;;;;;;;2.40;1.20;;;6.00;99.90;;;;;;5117961;28;20044;-75
2022/01/10 06:59:36;;;;;;;2.42;0.93;;;6.00;99.90;;;;;;5118177;28;20112;-75
2022/01/10 07:02:02;;;;;;;2.53;1.42;;;6.00;99.90;;;;;;5117842;28;20023;-76
2022/01/10 07:04:28;;;;;;;1.08;0.50;;;6.00;99.90;;;;;;5117387;28;20070;-75
2022/01/10 07:06:54;;;;;;;3.67;1.88;;;6.00;99.90;;;;;;5117892;28;20529;-75
2022/01/10 07:09:21;;;;;;;2.53;1.10;;;6.00;99.90;;;;;;5117845;28;20085;-75
2022/01/10 07:11:47;;;;;;;1.73;1.00;;;6.00;99.90;;;;;;5116462;28;20100;-75
2022/01/10 07:14:15;;;;;;;1.08;0.68;;;6.00;99.90;;;;;;5116959;28;20031;-76
2022/01/10 07:16:41;;;;;;;1.60;1.15;;;5.90;99.90;;;;;;5116079;28;20569;-76
2022/01/10 07:19:07;;;;;;;1.83;0.82;;;6.00;99.90;;;;;;5117303;28;20074;-76
2022/01/10 07:21:37;;;;;;;0.30;0.20;;;6.00;99.90;;;;;;5116753;28;20507;-75
2022/01/10 07:24:04;;;;;;;5.28;1.05;;;5.80;99.90;;;;;;5116958;28;20039;-76
2022/01/10 07:26:32;;;;;;;2.28;1.15;;;5.80;99.90;;;;;;5116902;28;20065;-75
2022/01/10 07:28:58;;;;;;;0.40;0.40;;;5.90;99.90;;;;;;5116673;28;20111;-76
2022/01/10 07:31:24;;;;;;;4.05;0.88;;;5.80;99.90;;;;;;5114496;28;20042;-76
2022/01/10 07:33:50;;;;;;;1.15;1.05;;;5.90;99.90;;;;;;5112015;28;20039;-76
2022/01/10 07:36:16;;;;;;;1.55;1.08;;;5.90;99.90;;;;;;5113755;28;20130;-76
2022/01/10 07:38:42;;;;;;;0.70;0.52;;;5.90;99.90;;;;;;5117538;27;20034;-75
2022/01/10 07:41:08;;;;;;;1.58;0.80;;;5.90;99.90;;;;;;5121799;27;20031;-76
2022/01/10 07:43:35;;;;;;;2.25;1.60;;;5.90;99.90;;;;;;5127890;27;20024;-75
2022/01/10 07:46:01;;;;;;;2.47;1.20;;;5.80;99.90;;;;;;5116285;28;20053;-76
2022/01/10 07:48:29;;;;;;;0.88;0.70;;;5.70;99.90;;;;;;5116106;28;20042;-76
2022/01/10 07:50:55;;;;;;;1.50;1.15;;;5.80;99.90;;;;;;5116545;28;20475;-75
2022/01/10 07:53:21;;;;;;;1.35;1.25;;;5.90;99.90;;;;;;5116477;28;20028;-75
2022/01/10 07:55:47;;;;;;;4.75;0.73;;;5.90;99.90;;;;;;5122570;27;20080;-76
2022/01/10 07:58:13;;;;;;;0.50;0.50;;;5.80;99.90;;;;;;5122047;27;20036;-75
2022/01/10 08:00:39;;;;;;;0.65;0.35;;;5.80;99.90;;;;;;5118477;27;20050;-75
2022/01/10 08:03:05;;;;;;;1.65;0.93;;;5.80;99.90;;;;;;5115885;28;20027;-75
2022/01/10 08:05:31;;;;;;;1.75;1.33;;;5.80;99.90;;;;;;5115929;28;20031;-74
2022/01/10 08:07:57;;;;;;;0.60;0.60;;;5.90;99.90;;;;;;5115999;28;20038;-75
2022/01/10 08:10:23;;;;;;;1.08;0.98;;;5.90;99.90;;;;;;5116209;28;20040;-75
2022/01/10 08:12:49;;;;;;;1.13;0.57;;;5.90;99.90;;;;;;5116510;28;20036;-75
2022/01/10 08:15:15;;;;;;;0.77;0.70;;;5.90;99.90;;;;;;5116078;28;20031;-75
2022/01/10 08:17:42;;;;;;;0.40;0.40;;;5.90;99.90;;;;;;5116182;28;20039;-75
2022/01/10 08:20:10;;;;;;;1.00;0.70;;;5.90;99.90;;;;;;5114686;28;20059;-72
2022/01/10 08:22:36;;;;;;;0.65;0.52;;;5.90;99.90;;;;;;5116851;27;20569;-75
2022/01/10 08:25:02;;;;;;;1.58;0.70;;;5.90;99.90;;;;;;5122691;27;20039;-75
2022/01/10 08:27:28;;;;;;;1.02;0.85;;;5.90;99.90;;;;;;5123906;27;20036;-74
2022/01/10 08:29:54;;;;;;;0.20;0.20;;;5.80;99.90;;;;;;5122613;27;20051;-75
2022/01/10 08:32:20;;;;;;;3.60;0.30;;;5.80;99.90;;;;;;5122814;27;20067;-75
2022/01/10 08:34:46;;;;;;;9.07;0.80;;;5.80;99.90;;;;;;5123813;27;20091;-76
2022/01/10 08:37:12;;;;;;;3.92;0.90;;;5.90;99.90;;;;;;5130417;27;20070;-74
2022/01/10 08:39:38;;;;;;;0.52;0.40;;;6.00;99.90;;;;;;5136252;27;20045;-74
2022/01/10 08:42:04;;;;;;;0.82;0.60;;;5.90;99.90;;;;;;5135974;27;20031;-74
2022/01/10 08:44:31;;;;;;;1.63;0.50;;;6.00;99.90;;;;;;5135992;27;20035;-74
2022/01/10 08:46:56;;;;;;;0.73;0.70;;;5.90;99.90;;;;;;5133924;27;20035;-74
2022/01/10 08:49:23;;;;;;;1.05;0.60;;;5.90;99.90;;;;;;5135887;27;20038;-74
2022/01/10 08:51:54;;;;;;;0.82;0.70;;;5.90;99.90;;;;;;5134588;27;20114;-74
2022/01/10 08:54:22;;;;;;;5.53;1.00;;;5.80;99.90;;;;;;5135192;27;20125;-74
2022/01/10 08:56:49;;;;;;;0.60;0.50;;;6.00;99.90;;;;;;5134758;27;20030;-73
2022/01/10 08:59:15;;;;;;;1.63;1.08;;;6.10;99.90;;;;;;5118767;27;20050;-72
2022/01/10 09:01:42;;;;;;;0.82;0.80;;;6.20;99.90;;;;;;5130614;27;20023;-73
2022/01/10 09:04:15;;;;;;;0.90;0.47;;;6.20;99.90;;;;;;5133777;27;20039;-73
2022/01/10 09:06:46;;;;;;;0.98;0.47;;;6.10;99.90;;;;;;5132936;27;20049;-73
2022/01/10 09:09:13;;;;;;;0.38;0.38;;;6.10;99.90;;;;;;5134186;27;20035;-73
2022/01/10 09:11:39;;;;;;;0.80;0.50;;;6.20;99.90;;;;;;5135249;27;20126;-73
2022/01/10 09:14:05;;;;;;;0.73;0.30;;;6.10;99.90;;;;;;5135674;27;20114;-73
2022/01/10 09:16:31;;;;;;;0.28;0.28;;;6.10;99.90;;;;;;5135179;27;20070;-73
2022/01/10 09:18:57;;;;;;;0.20;0.20;;;6.00;99.90;;;;;;5135638;27;20043;-73
2022/01/10 09:21:23;;;;;;;0.90;0.60;;;5.90;99.90;;;;;;5135902;27;20063;-72
2022/01/10 09:23:49;;;;;;;0.77;0.50;;;5.90;99.90;;;;;;5135589;28;20035;-73
2022/01/10 09:26:15;;;;;;;0.40;0.20;;;5.90;99.90;;;;;;5135582;28;20035;-72
2022/01/10 09:28:43;;;;;;;3.05;0.47;;;5.90;99.90;;;;;;5135247;28;20553;-74
2022/01/10 09:31:09;;;;;;;0.40;0.40;;;6.20;99.90;;;;;;5134856;28;20126;-72
2022/01/10 09:33:35;;;;;;;0.30;0.30;;;6.10;99.90;;;;;;5134563;28;20558;-73
2022/01/10 09:36:01;;;;;;;0.60;0.60;;;6.10;99.90;;;;;;5137176;27;20039;-73
2022/01/10 09:38:27;;;;;;;1.40;0.50;;;6.10;99.90;;;;;;5139442;27;20130;-73
2022/01/10 09:40:54;;;;;;;0.70;0.52;;;6.30;99.90;;;;;;5139145;27;20035;-73
2022/01/10 09:43:21;;;;;;;0.50;0.50;;;6.30;99.90;;;;;;5138856;27;20083;-73
2022/01/10 09:45:48;;;;;;;0.98;0.60;;;6.40;99.90;;;;;;5139853;27;20027;-72
2022/01/10 09:48:15;;;;;;;0.70;0.50;;;6.20;99.90;;;;;;5133319;27;20465;-73
2022/01/10 09:50:42;;;;;;;1.55;1.13;;;6.20;99.90;;;;;;5137888;27;20039;-73
2022/01/10 09:53:09;;;;;;;1.15;0.55;;;6.30;99.90;;;;;;5137389;27;20050;-73
2022/01/10 09:55:34;;;;;;;1.65;1.08;;;6.30;99.90;;;;;;5138183;27;20485;-73
2022/01/10 09:58:03;;;;;;;3.40;1.40;;;6.40;99.90;;;;;;5136407;27;20050;-74
2022/01/10 10:00:29;;;;;;;2.60;1.40;;;6.60;99.90;;;;;;5137391;27;20046;-73
2022/01/10 10:02:55;;;;;;;1.02;0.70;;;6.60;99.90;;;;;;5137952;27;20126;-73
2022/01/10 10:05:21;;;;;;;8.98;5.47;;;6.50;99.90;;;;;;5138610;27;20438;-73
2022/01/10 10:07:48;;;;;;;1.90;1.00;;;6.60;99.90;;;;;;5138574;27;20038;-75
2022/01/10 10:10:15;;;;;;;2.60;1.05;;;6.60;99.90;;;;;;5139079;27;20031;-71
2022/01/10 10:12:47;;;;;;;0.43;0.43;;;6.70;99.90;;;;;;5139089;27;20043;-73
2022/01/10 10:15:16;;;;;;;0.73;0.52;;;6.50;99.90;;;;;;5138950;27;20031;-73
2022/01/10 10:17:43;;;;;;;1.30;0.90;;;6.60;99.90;;;;;;5138611;27;20143;-73
2022/01/10 10:20:12;;;;;;;1.67;0.85;;;6.60;99.90;;;;;;5138784;27;20074;-73
2022/01/10 10:22:42;;;;;;;1.00;0.60;;;6.60;99.90;;;;;;5137815;27;20027;-73
2022/01/10 10:25:10;;;;;;;1.80;0.40;;;6.60;99.90;;;;;;5138898;27;20023;-73
2022/01/10 10:27:41;;;;;;;1.13;0.60;;;6.60;99.90;;;;;;5138594;27;20043;-72
2022/01/10 10:30:09;;;;;;;;;;;6.60;99.90;;;;;;5139602;27;20084;-73
2022/01/10 10:32:35;;;;;;;0.20;0.20;;;6.60;99.90;;;;;;5138748;27;19910;-73
2022/01/10 10:35:04;;;;;;;0.50;0.50;;;6.70;99.90;;;;;;5138507;27;20023;-73
2022/01/10 10:37:31;;;;;;;0.50;0.40;;;6.80;99.90;;;;;;5138523;27;20050;-73
2022/01/10 10:39:58;;;;;;;0.82;0.38;;;6.90;99.90;;;;;;5138658;27;20558;-73
2022/01/10 10:42:28;;;;;;;0.68;0.45;;;7.00;99.90;;;;;;5138523;27;20037;-73
2022/01/10 10:44:57;;;;;;;1.52;0.70;;;7.00;99.90;;;;;;5137874;27;20106;-73
2022/01/10 10:47:27;;;;;;;0.30;0.30;;;7.20;99.90;;;;;;5137618;27;20482;-73
2022/01/10 10:50:05;;;;;;;1.13;0.30;;;7.20;99.90;;;;;;5138682;27;20027;-73
2022/01/10 10:52:36;;;;;;;1.05;0.60;;;7.10;99.90;;;;;;5138413;27;20027;-73
2022/01/10 10:55:08;;;;;;;0.45;0.45;;;7.20;99.90;;;;;;5138011;27;20491;-73
2022/01/10 10:57:34;;;;;;;1.10;0.40;;;7.20;99.90;;;;;;5117917;27;20071;-73
2022/01/10 11:00:04;;;;;;;0.68;0.40;;;7.30;99.90;;;;;;5117489;28;20043;-73
2022/01/10 11:02:30;;;;;;;1.17;0.40;;;7.30;99.90;;;;;;5116175;28;20040;-73
2022/01/10 11:04:58;;;;;;;0.77;0.40;;;7.20;1.00;;;;;;5116049;28;20061;-72
2022/01/10 11:07:27;;;;;;;0.65;0.57;;;7.20;60.50;;;;;;5113743;27;20043;-74
2022/01/10 11:09:53;;;;;;;1.60;1.20;;;7.20;19.50;;;;;;5135155;27;20031;-73
2022/01/10 11:12:23;;;;;;;1.80;1.10;;;7.30;26.50;;;;;;5135498;27;20051;-73
2022/01/10 11:14:52;;;;;;;4.00;0.82;;;7.40;11.00;;;;;;5136530;27;20034;-73
2022/01/10 11:17:22;;;;;;;1.13;0.90;;;7.30;20.20;;;;;;5135916;27;20524;-73
2022/01/10 11:20:09;;;;;;;0.90;0.50;;;7.50;75.60;;;;;;5116629;27;20046;-73
2022/01/10 11:22:38;;;;;;;0.47;0.32;;;7.50;83.60;;;;;;5100589;28;20031;-74
2022/01/10 11:25:04;;;;;;;0.98;0.50;;;7.50;99.90;;;;;;5114654;28;20088;-73
2022/01/10 11:27:42;;;;;;;0.40;0.40;;;7.70;99.90;;;;;;5116703;28;20046;-73
2022/01/10 11:30:23;;;;;;;0.60;0.50;;;7.70;12.60;;;;;;5116900;28;20028;-73
2022/01/10 11:32:51;;;;;;;4.70;3.40;;;7.90;99.90;;;;;;5116255;28;20042;-74
2022/01/10 11:35:18;;;;;;;1.73;1.02;;;7.80;55.80;;;;;;5115904;28;20040;-72
2022/01/10 11:37:45;;;;;;;2.03;0.70;;;7.90;92.40;;;;;;5116421;28;20466;-72
2022/01/10 11:40:11;;;;;;;1.38;0.60;;;8.00;99.90;;;;;;5115220;28;20038;-72
2022/01/10 11:42:45;;;;;;;1.42;1.10;;;8.00;26.90;;;;;;5116606;28;20035;-71
2022/01/10 11:45:12;;;;;;;0.75;0.75;;;8.00;1.00;;;;;;5116699;28;20118;-72
2022/01/10 11:48:06;;;;;;;1.27;0.85;;;8.10;99.90;;;;;;5098523;28;20397;-73
2022/01/10 11:50:32;;;;;;;1.48;0.50;;;8.00;1.00;;;;;;5117279;28;20106;-71
2022/01/10 11:53:02;;;;;;;0.45;0.40;;;7.80;1.00;;;;;;5116597;28;20032;-72
2022/01/10 11:55:51;;;;;;;0.60;0.50;;;7.80;88.90;;;;;;5117395;28;20031;-71
2022/01/10 11:58:20;;;;;;;1.10;1.00;;;7.80;97.60;;;;;;5116150;28;20423;-72
2022/01/10 12:00:46;;;;;;;1.13;1.02;;;7.90;53.30;;;;;;5117916;28;20046;-71
2022/01/10 12:03:12;;;;;;;1.63;1.27;;;8.00;1.00;;;;;;5116512;28;20113;-71
2022/01/10 12:05:40;;;;;;;1.60;0.50;;;8.10;1.00;;;;;;5116389;28;20035;-71
2022/01/10 12:08:07;;;;;;;1.20;0.70;;;8.00;1.00;;;;;;5116869;28;20066;-71
2022/01/10 12:10:33;;;;;;;2.60;1.70;;;7.90;1.00;;;;;;5116711;28;20042;-72
2022/01/10 12:13:11;;;;;;;2.58;1.45;;;7.90;1.00;;;;;;5116235;28;20101;-74
2022/01/10 12:15:38;;;;;;;0.65;0.63;;;7.90;1.00;;;;;;5116057;28;20046;-72
2022/01/10 12:18:05;;;;;;;1.15;0.70;;;8.00;1.00;;;;;;5093110;28;20394;-71
2022/01/10 12:20:31;;;;;;;0.68;0.68;;;8.00;1.00;;;;;;5115414;28;20118;-71
2022/01/10 12:22:59;;;;;;;0.68;0.50;;;8.00;22.90;;;;;;5115433;28;20088;-71
2022/01/10 12:25:25;;;;;;;0.55;0.55;;;8.10;1.00;;;;;;5115403;28;20035;-71
2022/01/10 12:27:54;;;;;;;0.63;0.60;;;8.20;66.00;;;;;;5114771;28;20035;-71
2022/01/10 12:30:21;;;;;;;1.65;0.73;;;8.20;1.00;;;;;;5114346;28;20145;-71
2022/01/10 12:32:47;;;;;;;0.40;0.40;;;8.10;1.00;;;;;;5114630;28;20031;-72
2022/01/10 12:35:13;;;;;;;2.30;0.80;;;8.10;1.00;;;;;;5115261;28;20036;-71
2022/01/10 12:37:39;;;;;;;0.45;0.30;;;8.20;48.20;;;;;;5115134;28;20035;-72
2022/01/10 12:40:06;;;;;;;0.43;0.43;;;8.10;1.00;;;;;;5114337;28;20040;-71
2022/01/10 12:42:32;;;;;;;1.10;0.60;;;8.20;1.00;;;;;;5115187;28;20031;-71
2022/01/10 12:44:59;;;;;;;0.30;0.30;;;8.10;1.00;;;;;;5114471;28;20043;-71
2022/01/10 12:47:25;;;;;;;1.35;0.82;;;8.20;1.00;;;;;;5114411;28;20039;-72
2022/01/10 12:49:54;;;;;;;1.20;0.82;;;8.20;1.00;;;;;;5114672;28;20039;-71
2022/01/10 12:52:24;;;;;;;1.50;0.77;;;8.20;1.00;;;;;;5113968;28;20517;-72
2022/01/10 12:54:51;;;;;;;1.02;0.68;;;8.20;15.00;;;;;;5114458;28;20039;-71
2022/01/10 12:57:17;;;;;;;1.85;0.80;;;8.20;1.00;;;;;;5114428;28;20039;-71
2022/01/10 12:59:44;;;;;;;0.80;0.70;;;8.40;1.00;;;;;;5114281;28;20047;-71
2022/01/10 13:02:12;;;;;;;0.50;0.50;;;8.30;1.00;;;;;;5114791;28;20096;-71
2022/01/10 13:04:40;;;;;;;1.27;0.40;;;8.20;1.00;;;;;;5114097;28;20435;-72
2022/01/10 13:07:14;;;;;;;0.30;0.30;;;8.40;1.00;;;;;;5114298;28;20039;-71
2022/01/10 13:09:41;;;;;;;1.35;0.70;;;8.30;1.00;;;;;;5114296;28;20050;-72
2022/01/10 13:12:42;;;;;;;1.20;0.75;;;8.30;1.00;;;;;;5113760;28;20138;-71